Time;durP1;ratioP1;P1;durP2;ratioP2;P2;SDS_P1;SDS_P2;PMS_P1;PMS_P2;Temp;Humidity;BMP_temperature;BMP_pressure;BME280_temperature;BME280_humidity;BME280_pressure;Samples;Min_cycle;Max_cycle;Signal;HPM_P1;HPM_P2
2023/07/06 00:01:09;;;;;;;13.57;12.37;;;;;;;25.06;55.10;95017.44;6113108;28;109206;-63
2023/07/06 00:04:13;;;;;;;12.90;11.80;;;;;;;25.00;55.18;95011.47;6134712;28;110418;-63
2023/07/06 00:07:21;;;;;;;12.70;11.60;;;;;;;24.99;55.43;95020.63;6179991;28;109093;-62
2023/07/06 00:10:24;;;;;;;13.07;11.97;;;;;;;25.01;55.30;95013.03;6168010;28;109030;-62
2023/07/06 00:13:29;;;;;;;11.93;10.83;;;;;;;25.13;54.89;95006.22;6171464;28;109371;-62
2023/07/06 00:16:32;;;;;;;11.93;11.03;;;;;;;25.05;55.22;95011.31;6179355;28;110116;-62
2023/07/06 00:19:35;;;;;;;11.57;10.67;;;;;;;25.01;55.29;95002.34;6154820;28;109470;-63
2023/07/06 00:22:38;;;;;;;16.83;10.53;;;;;;;25.06;54.57;95007.53;6161440;28;109191;-62
2023/07/06 00:25:41;;;;;;;11.23;10.33;;;;;;;24.98;54.67;95010.25;6162463;28;110219;-62
2023/07/06 00:28:48;;;;;;;10.97;9.93;;;;;;;24.95;54.79;95000.97;6165145;28;109411;-65
2023/07/06 00:31:51;;;;;;;11.53;10.60;;;;;;;24.87;55.18;94999.16;6161183;28;109433;-63
2023/07/06 00:34:55;;;;;;;10.47;9.47;;;;;;;24.76;55.35;95000.63;6161203;28;109047;-63
2023/07/06 00:37:59;;;;;;;10.87;9.87;;;;;;;24.74;55.57;95000.94;6185312;28;109157;-62
2023/07/06 00:41:02;;;;;;;11.77;10.67;;;;;;;24.61;55.71;94995.78;6172914;28;109052;-62
2023/07/06 00:44:41;;;;;;;10.57;9.70;;;;;;;24.48;55.90;94995.69;6195164;28;110053;-61
2023/07/06 00:47:50;;;;;;;11.13;10.30;;;;;;;24.56;55.96;94995.97;6159335;28;109203;-60
2023/07/06 00:50:56;;;;;;;10.03;9.30;;;;;;;24.78;55.11;94995.72;6168022;28;109339;-60
2023/07/06 00:54:02;;;;;;;9.90;9.10;;;;;;;24.93;54.71;94991.69;6188160;28;109165;-60
2023/07/06 00:57:07;;;;;;;10.17;9.27;;;;;;;24.86;54.32;94986.84;6196559;28;108961;-61
2023/07/06 01:00:20;;;;;;;10.83;9.93;;;;;;;24.87;54.36;94988.44;6160672;28;108984;-62
2023/07/06 01:03:24;;;;;;;11.03;9.93;;;;;;;24.96;54.44;94986.47;6152095;28;109288;-60
2023/07/06 01:06:31;;;;;;;10.27;9.47;;;;;;;25.03;54.18;94992.13;6180410;28;108936;-61
2023/07/06 01:09:34;;;;;;;10.80;9.73;;;;;;;24.97;54.45;94993.41;6175345;28;109031;-61
2023/07/06 01:12:37;;;;;;;10.23;9.53;;;;;;;24.92;54.28;94990.13;6171843;28;109085;-61
2023/07/06 01:15:49;;;;;;;10.17;9.37;;;;;;;24.95;54.55;94986.81;6166149;28;110035;-61
2023/07/06 01:19:03;;;;;;;10.23;9.43;;;;;;;24.96;54.44;94981.13;6160397;28;109016;-60
2023/07/06 01:22:22;;;;;;;11.30;10.10;;;;;;;24.89;54.36;94975.50;6170080;28;109111;-60
2023/07/06 01:25:45;;;;;;;12.37;11.23;;;;;;;24.63;54.52;94970.28;6153576;28;109279;-62
2023/07/06 01:29:36;;;;;;;12.00;11.03;;;;;;;24.64;54.63;94969.16;6180611;28;109377;-60
2023/07/06 01:32:47;;;;;;;11.33;10.23;;;;;;;24.52;54.98;94978.97;6154326;28;110359;-72
2023/07/06 01:35:58;;;;;;;12.70;11.60;;;;;;;24.61;54.84;94974.38;6160417;28;109222;-62
2023/07/06 01:39:15;;;;;;;10.97;10.07;;;;;;;24.81;54.35;94973.66;6158958;28;110235;-60
2023/07/06 01:42:37;;;;;;;10.70;9.90;;;;;;;24.86;54.11;94961.97;6173360;28;109134;-61
2023/07/06 01:45:40;;;;;;;11.20;10.20;;;;;;;24.84;54.13;94964.97;6184110;28;109089;-62
2023/07/06 01:48:44;;;;;;;10.90;9.93;;;;;;;24.83;54.13;94974.13;6165323;28;109805;-67
2023/07/06 01:51:56;;;;;;;10.80;9.70;;;;;;;24.87;53.88;94975.06;6166625;28;111764;-61
2023/07/06 01:55:09;;;;;;;11.40;10.50;;;;;;;24.86;54.17;94975.34;6170449;28;110288;-72
2023/07/06 01:58:23;;;;;;;10.63;9.83;;;;;;;24.87;54.02;94976.94;6188196;28;108824;-71
2023/07/06 02:01:31;;;;;;;10.50;9.50;;;;;;;24.91;53.68;94977.88;6175297;28;110169;-74
2023/07/06 02:04:43;;;;;;;10.50;9.70;;;;;;;24.89;53.68;94974.72;6187743;28;109043;-71
2023/07/06 02:07:49;;;;;;;10.60;9.70;;;;;;;24.87;53.63;94972.38;6169211;28;109048;-73
2023/07/06 02:10:52;;;;;;;10.93;10.03;;;;;;;24.90;53.81;94966.38;6160011;28;109273;-72
2023/07/06 02:13:55;;;;;;;10.70;9.80;;;;;;;24.85;53.80;94971.09;6190102;28;109248;-72
2023/07/06 02:16:59;;;;;;;9.90;9.10;;;;;;;24.81;53.94;94968.31;6177689;28;109832;-71
2023/07/06 02:20:04;;;;;;;10.13;9.33;;;;;;;24.83;53.88;94952.69;6164155;28;109147;-72
2023/07/06 02:23:08;;;;;;;10.43;9.33;;;;;;;24.89;53.81;94964.03;6167790;28;108791;-73
2023/07/06 02:26:11;;;;;;;10.27;9.47;;;;;;;24.90;53.69;94954.88;6188191;28;109455;-72
2023/07/06 02:29:16;;;;;;;10.50;9.70;;;;;;;24.89;53.66;94964.03;6187361;28;109093;-71
2023/07/06 02:32:20;;;;;;;10.80;9.80;;;;;;;24.87;53.46;94953.63;6179195;28;109147;-71
2023/07/06 02:35:24;;;;;;;10.27;9.37;;;;;;;24.92;53.41;94955.34;6152775;28;109206;-72
2023/07/06 02:38:29;;;;;;;10.87;9.87;;;;;;;24.77;53.37;94956.69;6173085;28;108711;-73
2023/07/06 02:41:33;;;;;;;10.60;9.67;;;;;;;24.80;53.64;94953.34;6171650;28;109025;-74
2023/07/06 02:44:37;;;;;;;10.67;9.30;;;;;;;24.89;53.29;94951.41;6172426;28;108770;-71
2023/07/06 02:47:40;;;;;;;10.10;9.20;;;;;;;24.91;53.28;94946.53;6156183;28;109066;-73
2023/07/06 02:50:50;;;;;;;9.60;8.90;;;;;;;24.92;53.37;94945.41;6180999;28;109017;-71
2023/07/06 02:53:53;;;;;;;10.07;9.27;;;;;;;24.95;52.90;94946.66;6166337;28;109060;-72
2023/07/06 02:56:57;;;;;;;10.60;9.70;;;;;;;24.94;53.17;94945.88;6158038;28;109195;-71
2023/07/06 03:00:00;;;;;;;11.27;10.37;;;;;;;24.98;53.21;94936.06;6175530;28;109282;-71
2023/07/06 03:03:03;;;;;;;11.10;10.17;;;;;;;24.95;53.20;94935.94;6175539;28;109108;-60
2023/07/06 03:06:08;;;;;;;13.80;12.63;;;;;;;24.89;52.97;94946.06;6169059;28;109315;-72
2023/07/06 03:09:12;;;;;;;13.90;12.60;;;;;;;24.81;53.31;94949.56;6173931;28;109296;-60
2023/07/06 03:12:17;;;;;;;24.20;22.10;;;;;;;24.89;53.31;94942.59;6171242;28;109199;-60
2023/07/06 03:15:21;;;;;;;21.20;19.30;;;;;;;24.96;53.23;94949.00;6170573;28;109633;-61
2023/07/06 03:18:24;;;;;;;14.70;13.47;;;;;;;24.99;53.26;94945.66;6167573;28;109703;-60
2023/07/06 03:21:29;;;;;;;11.83;10.77;;;;;;;24.83;53.72;94950.03;6169185;28;109135;-63
2023/07/06 03:24:32;;;;;;;12.33;11.13;;;;;;;24.76;54.03;94953.22;6174071;28;109960;-63
2023/07/06 03:27:37;;;;;;;20.40;18.37;;;;;;;24.73;53.83;94937.03;6187412;28;109297;-63
2023/07/06 03:30:43;;;;;;;16.30;14.93;;;;;;;24.70;54.04;94937.69;6181245;28;109102;-63
2023/07/06 03:33:46;;;;;;;12.40;11.30;;;;;;;24.60;54.45;94938.81;6183906;28;109030;-63
2023/07/06 03:36:50;;;;;;;11.47;10.20;;;;;;;24.45;54.86;94942.03;6186796;28;109045;-63
2023/07/06 03:39:54;;;;;;;20.53;18.53;;;;;;;24.52;54.92;94938.84;6185884;28;109506;-64
2023/07/06 03:42:58;;;;;;;29.77;27.13;;;;;;;24.70;54.40;94935.03;6165208;28;109377;-63
2023/07/06 03:46:03;;;;;;;20.37;18.57;;;;;;;24.75;54.48;94924.91;6161172;28;109262;-62
2023/07/06 03:49:09;;;;;;;14.40;13.00;;;;;;;24.78;54.46;94926.91;6184331;28;109255;-62
2023/07/06 03:52:17;;;;;;;13.30;12.10;;;;;;;24.82;54.19;94921.69;6177171;28;109050;-63
2023/07/06 03:55:24;;;;;;;12.60;11.47;;;;;;;24.88;54.10;94933.78;6174471;28;109213;-62
2023/07/06 03:58:28;;;;;;;15.10;13.67;;;;;;;24.90;54.37;94925.44;6165813;28;109032;-62
2023/07/06 04:01:32;;;;;;;16.07;14.53;;;;;;;24.98;53.87;94929.94;6179694;28;109275;-62
2023/07/06 04:04:36;;;;;;;13.53;12.30;;;;;;;25.04;54.06;94931.31;6189149;28;111032;-62
2023/07/06 04:07:41;;;;;;;13.13;10.40;;;;;;;25.01;53.81;94937.31;6174208;28;109073;-65
2023/07/06 04:10:44;;;;;;;11.47;10.27;;;;;;;25.06;55.07;94935.22;6172189;28;109127;-63
2023/07/06 04:13:47;;;;;;;11.90;10.77;;;;;;;25.18;54.63;94939.06;6191017;28;109136;-63
2023/07/06 04:16:51;;;;;;;10.93;9.93;;;;;;;25.13;54.37;94939.25;6175692;28;109017;-61
2023/07/06 04:19:55;;;;;;;9.27;8.50;;;;;;;25.08;54.19;94950.97;6195988;28;109061;-61
2023/07/06 04:23:02;;;;;;;11.00;10.00;;;;;;;24.84;53.75;94945.47;6185284;28;109359;-63
2023/07/06 04:26:06;;;;;;;8.73;7.97;;;;;;;24.57;54.25;94950.16;6180974;28;108956;-69
2023/07/06 04:29:10;;;;;;;9.20;8.00;;;;;;;24.45;54.46;94955.41;6165900;28;110185;-64
2023/07/06 04:32:14;;;;;;;8.20;7.40;;;;;;;24.59;54.09;94961.34;6170691;28;109026;-61
2023/07/06 04:35:19;;;;;;;8.47;7.67;;;;;;;24.82;53.64;94959.16;6183026;28;109381;-62
2023/07/06 04:38:25;;;;;;;10.73;8.67;;;;;;;24.85;53.61;94958.50;6171402;28;110092;-65
2023/07/06 04:41:29;;;;;;;10.17;9.20;;;;;;;24.83;53.81;94952.69;6185875;28;109116;-62
2023/07/06 04:44:32;;;;;;;11.90;9.73;;;;;;;24.69;54.05;94949.47;6176167;28;109079;-61
2023/07/06 04:47:35;;;;;;;10.20;9.40;;;;;;;24.54;54.92;94952.72;6179017;28;109025;-62
2023/07/06 04:50:38;;;;;;;11.03;10.03;;;;;;;24.44;55.02;94946.63;6175000;28;109904;-62
2023/07/06 04:53:43;;;;;;;12.67;11.47;;;;;;;24.25;56.16;94959.59;6185523;28;109225;-62
2023/07/06 04:56:46;;;;;;;12.70;11.37;;;;;;;24.20;56.27;94959.78;6185794;28;109572;-65
2023/07/06 04:59:50;;;;;;;12.40;11.20;;;;;;;24.08;56.36;94952.44;6185641;28;109219;-62
2023/07/06 05:02:53;;;;;;;13.67;12.33;;;;;;;24.15;56.46;94947.38;6175289;28;109087;-61
2023/07/06 05:06:02;;;;;;;15.03;12.20;;;;;;;24.19;56.52;94952.84;6185150;28;109257;-62
2023/07/06 05:09:07;;;;;;;14.80;12.97;;;;;;;24.21;56.29;94953.34;6186216;28;108600;-62
2023/07/06 05:12:11;;;;;;;16.97;15.47;;;;;;;24.06;56.99;94959.22;6185271;28;109066;-66
2023/07/06 05:15:14;;;;;;;16.40;14.93;;;;;;;24.22;56.60;94952.25;6174454;28;109062;-63
2023/07/06 05:18:19;;;;;;;14.97;12.90;;;;;;;24.42;56.30;94954.19;6184654;28;109434;-64
2023/07/06 05:21:23;;;;;;;14.00;11.57;;;;;;;24.52;55.80;94953.00;6195963;28;110922;-63
2023/07/06 05:24:28;;;;;;;13.13;12.00;;;;;;;24.60;55.41;94960.22;6202595;28;109236;-73
2023/07/06 05:27:31;;;;;;;14.40;13.20;;;;;;;24.68;55.53;94953.28;6209146;28;109089;-74
2023/07/06 05:30:34;;;;;;;18.47;16.77;;;;;;;24.73;55.31;94961.91;6204759;28;109069;-75
2023/07/06 05:33:38;;;;;;;17.07;15.37;;;;;;;24.74;55.35;94970.72;6184826;28;109382;-74
2023/07/06 05:36:41;;;;;;;14.00;12.73;;;;;;;24.83;55.36;94970.66;6176657;28;109115;-74
2023/07/06 05:39:46;;;;;;;13.80;12.60;;;;;;;24.87;55.57;94972.38;6189536;28;109060;-73
2023/07/06 05:42:49;;;;;;;13.40;12.20;;;;;;;24.93;55.17;94971.06;6188871;28;109079;-73
2023/07/06 05:45:53;;;;;;;12.23;11.03;;;;;;;25.04;55.25;94972.25;6188767;28;109476;-72
2023/07/06 05:48:56;;;;;;;12.60;11.47;;;;;;;25.13;54.38;94979.44;6177187;28;109041;-73
2023/07/06 05:51:59;;;;;;;12.50;11.37;;;;;;;25.19;54.82;94978.13;6203979;28;109372;-73
2023/07/06 05:55:04;;;;;;;12.30;11.10;;;;;;;25.25;53.85;94977.59;6214165;28;111896;-73
2023/07/06 05:58:07;;;;;;;11.37;10.30;;;;;;;25.34;53.83;94974.84;6208335;28;109713;-72
2023/07/06 06:01:10;;;;;;;11.17;10.17;;;;;;;25.38;53.82;94979.28;6207978;28;109147;-73
2023/07/06 06:04:13;;;;;;;11.70;10.60;;;;;;;25.45;53.75;94975.28;6212856;28;109319;-72
2023/07/06 06:07:19;;;;;;;10.87;9.77;;;;;;;25.54;53.79;94976.78;6213369;28;109232;-72
2023/07/06 06:10:23;;;;;;;10.90;10.00;;;;;;;25.62;53.37;94970.53;6203247;28;110226;-73
2023/07/06 06:13:28;;;;;;;10.40;9.40;;;;;;;25.56;53.85;94977.22;6213655;28;108863;-71
2023/07/06 06:16:32;;;;;;;10.67;9.60;;;;;;;25.57;54.06;94976.09;6213588;28;109081;-70
2023/07/06 06:19:38;;;;;;;11.17;10.07;;;;;;;25.64;53.88;94975.56;6213019;28;109052;-72
2023/07/06 06:22:41;;;;;;;10.10;9.30;;;;;;;25.74;53.71;94979.75;6181773;28;109510;-72
2023/07/06 06:25:46;;;;;;;10.83;9.73;;;;;;;25.82;53.82;94971.59;6188455;28;109045;-72
2023/07/06 06:28:49;;;;;;;11.70;10.17;;;;;;;25.88;53.69;94972.19;6188715;28;112607;-76
2023/07/06 06:31:52;;;;;;;10.33;9.40;;;;;;;25.92;53.49;94963.13;6187512;28;109038;-71
2023/07/06 06:34:55;;;;;;;10.83;10.03;;;;;;;25.89;53.39;94963.81;6180480;28;109267;-62
2023/07/06 06:37:58;;;;;;;11.40;10.30;;;;;;;25.73;53.51;94967.44;6188301;28;109257;-62
2023/07/06 06:41:05;;;;;;;10.70;9.80;;;;;;;25.74;53.52;94960.97;6188120;28;109227;-64
2023/07/06 06:44:11;;;;;;;10.70;9.70;;;;;;;25.80;53.82;94963.09;6178488;28;109495;-64
2023/07/06 06:47:14;;;;;;;11.00;8.80;;;;;;;25.80;53.00;94965.00;6187136;28;108994;-61
2023/07/06 06:50:19;;;;;;;10.20;9.20;;;;;;;25.97;52.97;94946.03;6188071;28;109108;-63
2023/07/06 06:53:23;;;;;;;8.90;8.20;;;;;;;26.09;52.43;94953.38;6212726;28;109282;-61
2023/07/06 06:56:28;;;;;;;9.63;8.70;;;;;;;26.15;52.24;94947.44;6201936;28;109389;-61
2023/07/06 06:59:32;;;;;;;8.50;7.80;;;;;;;26.23;52.11;94943.88;6212279;28;109019;-61
2023/07/06 07:02:38;;;;;;;8.63;7.93;;;;;;;26.27;52.07;94947.47;6212354;28;109463;-62
2023/07/06 07:05:41;;;;;;;9.60;8.60;;;;;;;26.31;52.08;94950.25;6212200;28;110399;-60
2023/07/06 07:08:47;;;;;;;8.40;7.80;;;;;;;26.38;52.15;94947.00;6201242;28;110684;-61
2023/07/06 07:11:52;;;;;;;8.70;7.90;;;;;;;26.43;52.39;94961.00;6212229;28;109452;-61
2023/07/06 07:14:56;;;;;;;8.60;7.80;;;;;;;26.48;51.79;94959.97;6211968;28;109107;-61
2023/07/06 07:18:02;;;;;;;9.20;8.50;;;;;;;26.53;51.82;94955.16;6205258;28;110989;-65
2023/07/06 07:21:06;;;;;;;8.70;8.00;;;;;;;26.55;52.41;94952.94;6202243;28;111958;-60
2023/07/06 07:24:11;;;;;;;8.20;7.50;;;;;;;26.57;51.50;94960.66;6187690;28;109062;-60
2023/07/06 07:27:16;;;;;;;8.97;8.17;;;;;;;26.62;52.04;94947.00;6187493;28;109546;-60
2023/07/06 07:30:20;;;;;;;8.03;7.43;;;;;;;26.62;52.24;94951.59;6176210;28;109333;-61
2023/07/06 07:33:23;;;;;;;8.57;7.83;;;;;;;26.64;51.35;94954.75;6186997;28;109092;-61
2023/07/06 07:36:27;;;;;;;8.43;7.67;;;;;;;26.69;51.51;94947.22;6186764;28;109063;-60
2023/07/06 07:39:30;;;;;;;7.80;7.20;;;;;;;26.71;51.72;94950.38;6186890;28;109134;-62
2023/07/06 07:42:34;;;;;;;8.60;7.70;;;;;;;26.74;51.38;94947.03;6175919;28;110133;-62
2023/07/06 07:45:37;;;;;;;8.47;7.77;;;;;;;26.76;51.87;94947.47;6186970;28;109060;-73
2023/07/06 07:48:45;;;;;;;7.97;7.37;;;;;;;26.82;51.55;94940.72;6187605;28;111761;-72
2023/07/06 07:51:48;;;;;;;7.37;6.70;;;;;;;26.86;51.13;94940.84;6193963;28;109048;-71
2023/07/06 07:54:53;;;;;;;8.30;7.60;;;;;;;26.86;51.05;94941.63;6206485;28;109383;-73
2023/07/06 07:57:58;;;;;;;7.70;7.00;;;;;;;26.90;51.43;94946.34;6210668;28;109095;-72
2023/07/06 08:01:02;;;;;;;8.50;7.60;;;;;;;26.90;51.47;94946.34;6210790;28;109058;-73
2023/07/06 08:04:06;;;;;;;8.40;7.70;;;;;;;26.91;50.90;94947.91;6199684;28;109704;-72
2023/07/06 08:07:09;;;;;;;7.93;7.33;;;;;;;26.96;51.54;94944.97;6211144;28;109043;-74
2023/07/06 08:10:14;;;;;;;9.30;8.50;;;;;;;26.96;51.02;94942.28;6210623;28;109482;-73
2023/07/06 08:13:20;;;;;;;8.70;7.80;;;;;;;26.69;51.38;94949.13;6210987;28;109163;-73
2023/07/06 08:16:24;;;;;;;9.10;8.20;;;;;;;26.81;50.67;94941.84;6199598;28;109138;-73
2023/07/06 08:19:28;;;;;;;9.03;8.30;;;;;;;26.92;50.37;94944.09;6210670;28;109216;-73
2023/07/06 08:22:51;;;;;;;8.70;7.83;;;;;;;26.96;50.40;94939.59;6188923;28;109192;-72
2023/07/06 08:25:56;;;;;;;9.30;8.40;;;;;;;26.96;50.70;94944.97;6181101;28;109152;-72
2023/07/06 08:29:01;;;;;;;9.33;8.63;;;;;;;27.02;51.05;94938.22;6183107;28;111018;-72
2023/07/06 08:32:05;;;;;;;8.80;8.10;;;;;;;27.01;50.96;94936.66;6186073;28;109834;-72
2023/07/06 08:35:09;;;;;;;9.47;8.50;;;;;;;27.03;50.51;94939.78;6185880;28;109098;-73
2023/07/06 08:38:13;;;;;;;9.17;8.27;;;;;;;27.06;50.58;94934.53;6174852;28;109616;-72
2023/07/06 08:41:26;;;;;;;9.37;8.50;;;;;;;27.09;51.01;94938.44;6185818;28;109024;-73
2023/07/06 08:44:31;;;;;;;9.97;9.17;;;;;;;27.10;51.05;94927.34;6186117;28;109220;-73
2023/07/06 08:47:34;;;;;;;10.93;10.03;;;;;;;27.09;50.76;94928.47;6185768;28;109287;-72
2023/07/06 08:50:37;;;;;;;10.10;9.20;;;;;;;27.09;50.92;94933.06;6174727;28;109032;-72
2023/07/06 08:53:49;;;;;;;10.17;9.27;;;;;;;27.14;50.82;94927.44;6185232;28;110096;-72
2023/07/06 08:56:53;;;;;;;10.73;9.93;;;;;;;27.11;50.20;94925.44;6185971;28;109251;-67
2023/07/06 08:59:58;;;;;;;10.73;9.90;;;;;;;27.14;50.30;94930.91;6181043;28;110318;-66
2023/07/06 09:03:07;;;;;;;10.10;9.30;;;;;;;27.14;50.93;94930.91;6179286;28;109164;-66
2023/07/06 09:06:14;;;;;;;10.33;9.37;;;;;;;27.14;50.56;94930.13;6185349;28;109213;-68
2023/07/06 09:09:17;;;;;;;10.70;9.80;;;;;;;27.12;49.90;94921.66;6185435;28;109070;-66
2023/07/06 09:12:25;;;;;;;9.83;9.00;;;;;;;27.18;50.16;94937.16;6174436;28;109029;-66
2023/07/06 09:15:31;;;;;;;9.77;9.03;;;;;;;27.20;50.63;94926.06;6185297;28;109073;-66
2023/07/06 09:18:38;;;;;;;9.87;9.07;;;;;;;27.20;50.76;94934.13;6185608;28;110175;-66
2023/07/06 09:21:47;;;;;;;9.77;9.07;;;;;;;27.20;50.82;94931.44;6196964;28;109042;-66
2023/07/06 09:24:51;;;;;;;10.87;9.97;;;;;;;27.21;50.43;94929.53;6198754;28;110796;-69
2023/07/06 09:27:58;;;;;;;12.50;11.60;;;;;;;27.23;50.41;94930.78;6209725;28;109063;-66
2023/07/06 09:31:18;;;;;;;11.07;10.17;;;;;;;27.22;50.05;94929.22;6210075;28;109373;-66
2023/07/06 09:34:29;;;;;;;11.57;10.57;;;;;;;27.20;50.38;94922.63;6203202;28;109233;-67
2023/07/06 09:37:32;;;;;;;10.93;10.03;;;;;;;27.21;50.30;94914.22;6209192;28;108969;-65
2023/07/06 09:40:38;;;;;;;11.33;10.43;;;;;;;27.17;50.59;94916.81;6210173;28;110069;-65
2023/07/06 09:43:47;;;;;;;11.23;10.23;;;;;;;27.17;50.57;94914.13;6209880;28;109283;-65
2023/07/06 09:46:55;;;;;;;11.60;10.50;;;;;;;27.16;50.41;94907.19;6198618;28;108937;-65
2023/07/06 09:50:04;;;;;;;10.90;10.10;;;;;;;27.15;50.89;94905.63;6209852;28;109727;-65
2023/07/06 09:53:24;;;;;;;11.93;10.93;;;;;;;27.16;50.23;94917.16;6186158;28;109337;-65
2023/07/06 09:56:29;;;;;;;11.13;10.23;;;;;;;27.17;50.33;94914.13;6181022;28;109240;-67
2023/07/06 09:59:33;;;;;;;10.50;9.73;;;;;;;27.15;50.34;94918.28;6179819;28;109875;-65
2023/07/06 10:02:45;;;;;;;10.70;9.80;;;;;;;27.11;50.73;94901.28;6184949;28;109026;-64
2023/07/06 10:05:54;;;;;;;9.90;9.10;;;;;;;27.12;50.77;94900.94;6184791;28;109393;-72
2023/07/06 10:09:04;;;;;;;11.17;10.20;;;;;;;27.08;50.35;94897.38;6174700;28;111465;-72
2023/07/06 10:12:17;;;;;;;10.30;9.40;;;;;;;27.07;50.52;94895.81;6184619;28;108834;-73
2023/07/06 10:15:28;;;;;;;10.77;9.87;;;;;;;27.05;49.97;94910.69;6184722;28;109049;-74
2023/07/06 10:18:44;;;;;;;10.37;9.57;;;;;;;26.98;50.10;94911.28;6184951;28;109125;-73
2023/07/06 10:21:54;;;;;;;9.33;8.60;;;;;;;26.97;49.78;94909.72;6186420;28;109254;-73
2023/07/06 10:25:09;;;;;;;9.63;8.93;;;;;;;26.91;49.80;94915.66;6213905;28;110254;-71
2023/07/06 10:28:18;;;;;;;9.67;8.90;;;;;;;26.89;49.66;94921.38;6212789;28;110338;-72
2023/07/06 10:31:27;;;;;;;10.43;9.40;;;;;;;26.87;50.08;94919.00;6203156;28;109310;-72
2023/07/06 10:34:39;;;;;;;10.07;9.27;;;;;;;26.84;49.81;94922.38;6212845;28;109179;-73
2023/07/06 10:37:44;;;;;;;9.20;8.50;;;;;;;26.78;50.35;94899.56;6212911;28;109122;-75
2023/07/06 10:40:51;;;;;;;9.77;8.90;;;;;;;26.77;50.31;94899.91;6213753;28;108917;-72
2023/07/06 10:43:59;;;;;;;10.20;8.50;;;;;;;26.72;50.17;94911.69;6202235;28;108943;-73
2023/07/06 10:47:02;;;;;;;8.73;8.03;;;;;;;26.72;50.33;94909.00;6212743;28;109133;-73
2023/07/06 10:50:30;;;;;;;9.30;8.50;;;;;;;26.70;50.78;94908.53;6213525;28;109071;-75
2023/07/06 10:53:36;;;;;;;9.03;8.33;;;;;;;26.67;50.79;94905.75;6127673;28;109019;-72
2023/07/06 10:56:45;;;;;;;9.20;8.47;;;;;;;26.67;51.08;94919.94;6158606;28;109178;-72
2023/07/06 10:59:49;;;;;;;9.50;8.60;;;;;;;26.64;50.48;94909.88;6162521;28;109626;-74
2023/07/06 11:02:56;;;;;;;9.63;8.83;;;;;;;26.65;51.01;94906.09;6163303;28;108835;-70
2023/07/06 11:06:06;;;;;;;10.00;9.20;;;;;;;26.65;50.73;94908.00;6153387;28;109581;-73
2023/07/06 11:09:14;;;;;;;9.90;9.10;;;;;;;26.63;50.94;94908.31;6163427;28;109144;-73
2023/07/06 11:12:19;;;;;;;9.33;8.53;;;;;;;26.59;51.30;94907.41;6163064;28;109153;-73
2023/07/06 11:15:26;;;;;;;8.87;8.27;;;;;;;26.59;51.42;94894.00;6162902;28;109000;-65
2023/07/06 11:18:36;;;;;;;9.83;9.07;;;;;;;26.58;50.91;94890.53;6152405;28;109297;-64
2023/07/06 11:21:46;;;;;;;9.83;9.13;;;;;;;26.56;51.44;94884.72;6183554;28;109188;-64
2023/07/06 11:24:53;;;;;;;10.20;9.20;;;;;;;26.60;51.01;94892.88;6212510;28;108811;-65
2023/07/06 11:28:00;;;;;;;9.67;8.90;;;;;;;26.60;50.97;94895.56;6205847;28;108865;-65
2023/07/06 11:31:12;;;;;;;9.30;8.60;;;;;;;26.56;51.74;94895.47;6210240;28;109026;-64
2023/07/06 11:34:26;;;;;;;9.17;8.47;;;;;;;26.56;51.67;94895.47;6211335;28;109376;-65
2023/07/06 11:37:40;;;;;;;9.57;8.73;;;;;;;26.56;51.66;94905.41;6211506;28;109050;-65
2023/07/06 11:41:17;;;;;;;9.23;8.57;;;;;;;26.54;51.75;94911.09;6200873;28;109180;-67
2023/07/06 11:44:47;;;;;;;9.93;9.03;;;;;;;26.57;51.83;94917.72;6211272;28;109370;-65
2023/07/06 11:48:02;;;;;;;9.77;9.07;;;;;;;26.54;51.65;94927.19;6212286;28;108808;-67
2023/07/06 11:51:06;;;;;;;9.50;8.80;;;;;;;26.52;51.51;94920.59;6201053;28;109505;-66
2023/07/06 11:54:39;;;;;;;10.07;9.20;;;;;;;26.51;51.74;94916.34;6211044;28;109029;-65
2023/07/06 11:57:44;;;;;;;10.70;9.80;;;;;;;26.50;52.09;94917.47;6210859;28;109051;-69
2023/07/06 12:00:52;;;;;;;10.20;9.50;;;;;;;26.52;51.80;94925.97;6211292;28;108997;-64
2023/07/06 12:03:59;;;;;;;9.90;9.10;;;;;;;26.49;52.42;94948.13;6199364;28;109424;-64
2023/07/06 12:07:08;;;;;;;10.33;9.47;;;;;;;26.50;52.32;94974.63;6211143;28;109144;-64
2023/07/06 12:10:15;;;;;;;9.23;8.63;;;;;;;26.51;51.86;94986.13;6210909;28;109114;-64
2023/07/06 12:13:22;;;;;;;9.73;8.90;;;;;;;26.44;52.40;95002.03;6205649;28;109100;-66
2023/07/06 12:16:30;;;;;;;8.43;7.63;;;;;;;26.36;52.08;95000.22;6208813;28;109344;-67
2023/07/06 12:19:37;;;;;;;8.53;7.50;;;;;;;26.33;52.15;94992.84;6211617;28;109316;-65
2023/07/06 12:22:52;;;;;;;10.90;5.73;;;;;;;26.19;50.99;94996.63;6192239;28;109208;-66
2023/07/06 12:25:58;;;;;;;5.90;5.30;;;;;;;26.14;51.37;95002.19;6176014;28;109218;-64
2023/07/06 12:29:02;;;;;;;5.30;4.60;;;;;;;26.10;50.71;95001.31;6186406;28;110295;-74
2023/07/06 12:32:13;;;;;;;6.10;4.30;;;;;;;26.11;50.19;95007.47;6186173;28;109217;-65
2023/07/06 12:35:17;;;;;;;4.10;3.70;;;;;;;26.07;49.79;94999.28;6185050;28;109080;-65
2023/07/06 12:38:20;;;;;;;4.50;4.10;;;;;;;26.12;49.68;94984.88;6174852;28;109401;-64
2023/07/06 12:41:25;;;;;;;4.60;3.90;;;;;;;26.12;49.52;94982.19;6186216;28;109065;-64
2023/07/06 12:44:29;;;;;;;4.07;3.77;;;;;;;26.15;49.93;95009.13;6186766;28;109095;-69
2023/07/06 12:47:37;;;;;;;4.00;3.70;;;;;;;26.18;49.98;95013.81;6177524;28;109612;-73
2023/07/06 12:50:41;;;;;;;4.20;3.90;;;;;;;26.20;49.61;95038.41;6187536;28;109629;-66
2023/07/06 12:53:44;;;;;;;4.73;4.33;;;;;;;26.19;49.80;95020.75;6210493;28;108817;-65
2023/07/06 12:56:58;;;;;;;4.60;4.20;;;;;;;26.20;49.84;95010.81;6210410;28;109144;-65
2023/07/06 13:00:09;;;;;;;5.07;4.67;;;;;;;26.19;49.07;95014.59;6200432;28;110071;-65
2023/07/06 13:03:13;;;;;;;5.87;5.30;;;;;;;26.19;49.57;95010.03;6210159;28;109079;-65
2023/07/06 13:06:17;;;;;;;6.33;5.83;;;;;;;26.20;49.69;95008.13;6209809;28;109303;-65
2023/07/06 13:09:22;;;;;;;7.30;6.60;;;;;;;26.20;49.32;95006.22;6210952;28;108828;-65
2023/07/06 13:12:34;;;;;;;9.57;8.77;;;;;;;26.20;49.57;95000.88;6199807;28;109844;-65
2023/07/06 13:15:45;;;;;;;7.87;7.17;;;;;;;26.20;49.69;94992.81;6210639;28;109280;-65
2023/07/06 13:18:51;;;;;;;9.70;8.70;;;;;;;26.19;49.24;94987.78;6210460;28;109159;-65
2023/07/06 13:21:55;;;;;;;10.33;9.53;;;;;;;26.19;49.23;94974.38;6190379;28;109823;-65
2023/07/06 13:24:59;;;;;;;13.93;12.73;;;;;;;26.19;50.07;94964.44;6185749;28;111548;-65
2023/07/06 13:28:03;;;;;;;12.40;11.27;;;;;;;26.18;50.07;94970.91;6185568;28;109046;-65
2023/07/06 13:31:12;;;;;;;10.67;9.67;;;;;;;26.18;49.85;94975.50;6185056;28;109084;-64
2023/07/06 13:34:15;;;;;;;15.07;13.57;;;;;;;26.19;49.94;94985.88;6174955;28;109349;-65
2023/07/06 13:37:23;;;;;;;15.23;14.03;;;;;;;26.17;50.16;94985.44;6184570;28;109061;-64
2023/07/06 13:40:26;;;;;;;11.83;10.73;;;;;;;26.18;50.62;94992.38;6185483;28;109051;-65
2023/07/06 13:43:31;;;;;;;9.37;8.50;;;;;;;26.17;50.82;94985.44;6185580;28;112024;-65
2023/07/06 13:46:35;;;;;;;10.20;9.07;;;;;;;26.15;50.37;94982.31;6175567;28;110192;-64
2023/07/06 13:49:39;;;;;;;8.27;7.57;;;;;;;26.15;50.67;94985.00;6185294;28;109361;-65
2023/07/06 13:52:43;;;;;;;9.80;8.90;;;;;;;26.15;50.45;94986.88;6203907;28;110040;-65
2023/07/06 13:55:50;;;;;;;19.00;16.47;;;;;;;26.14;50.46;94988.78;6199271;28;109169;-65
2023/07/06 13:58:55;;;;;;;21.00;19.10;;;;;;;26.15;50.96;94986.88;6212833;28;109233;-65
2023/07/06 14:02:02;;;;;;;16.23;14.73;;;;;;;26.14;50.59;94983.44;6213954;28;109407;-65
2023/07/06 14:05:06;;;;;;;14.20;12.80;;;;;;;26.15;50.88;94976.16;6213726;28;109124;-65
2023/07/06 14:08:10;;;;;;;11.70;10.50;;;;;;;26.11;51.06;94956.50;6201665;28;109078;-65
2023/07/06 14:11:16;;;;;;;11.77;9.53;;;;;;;26.12;51.32;94955.38;6213991;28;110857;-65
2023/07/06 14:14:21;;;;;;;10.90;9.80;;;;;;;26.12;51.36;94952.69;6213441;28;108759;-64
2023/07/06 14:17:24;;;;;;;8.80;8.00;;;;;;;26.11;50.92;94954.59;6213469;28;109092;-65